createdAt,value
2018-05-24T00:00:25.714Z,17.41
2018-05-24T00:02:53.926Z,17.36
2018-05-24T00:05:22.099Z,17.33
2018-05-24T00:07:50.335Z,17.35
2018-05-24T00:10:18.455Z,17.31
2018-05-24T00:12:46.633Z,17.31
2018-05-24T00:15:15.255Z,17.30
2018-05-24T00:17:43.434Z,17.29
2018-05-24T00:20:11.597Z,17.28
2018-05-24T00:22:39.747Z,17.28
2018-05-24T00:25:07.904Z,17.27
2018-05-24T00:27:36.207Z,17.24
2018-05-24T00:30:05.225Z,17.23
2018-05-24T00:32:33.381Z,17.18
2018-05-24T00:35:01.546Z,17.19
2018-05-24T00:37:29.759Z,17.15
2018-05-24T00:39:57.930Z,17.15
2018-05-24T00:42:26.083Z,17.13
2018-05-24T00:44:54.265Z,17.10
2018-05-24T00:47:22.414Z,17.08
2018-05-24T00:49:50.556Z,17.09
2018-05-24T00:52:18.714Z,17.05
2018-05-24T00:54:46.889Z,17.03
2018-05-24T00:57:15.048Z,17.00
2018-05-24T00:59:43.234Z,16.93
2018-05-24T01:02:11.392Z,16.86
2018-05-24T01:04:39.538Z,16.82
2018-05-24T01:07:08.324Z,16.77
2018-05-24T01:09:36.494Z,16.77
2018-05-24T01:12:04.636Z,16.77
2018-05-24T01:14:32.794Z,16.76
2018-05-24T01:17:00.944Z,16.74
2018-05-24T01:19:29.108Z,16.72
2018-05-24T01:21:57.277Z,16.72
2018-05-24T01:24:38.667Z,16.72
2018-05-24T01:27:06.825Z,16.72
2018-05-24T01:29:35.011Z,16.71
2018-05-24T01:32:03.149Z,16.72
2018-05-24T01:34:31.301Z,16.72
2018-05-24T01:37:17.787Z,16.75
2018-05-24T01:39:45.946Z,16.75
2018-05-24T01:42:14.147Z,16.73
2018-05-24T01:44:42.297Z,16.75
2018-05-24T01:47:10.716Z,16.73
2018-05-24T01:49:38.882Z,16.72
2018-05-24T01:52:07.068Z,16.72
2018-05-24T01:54:35.217Z,16.71
2018-05-24T01:57:03.378Z,16.71
2018-05-24T01:59:31.607Z,16.72
2018-05-24T02:02:00.553Z,16.72
2018-05-24T02:04:28.738Z,16.70
2018-05-24T02:06:56.887Z,16.69
2018-05-24T02:09:25.059Z,16.67
2018-05-24T02:11:53.207Z,16.65
2018-05-24T02:14:21.342Z,16.65
2018-05-24T02:16:49.517Z,16.63
2018-05-24T02:19:17.660Z,16.65
2018-05-24T02:21:45.823Z,16.65
2018-05-24T02:24:14.524Z,16.65
2018-05-24T02:26:42.689Z,16.66
2018-05-24T02:29:10.954Z,16.68
2018-05-24T02:31:39.029Z,16.66
2018-05-24T02:34:08.059Z,16.62
2018-05-24T02:36:36.748Z,16.63
2018-05-24T02:39:05.854Z,16.58
2018-05-24T02:41:34.024Z,16.59
2018-05-24T02:44:02.209Z,16.62
2018-05-24T02:46:31.085Z,16.61
2018-05-24T02:48:59.280Z,16.60
2018-05-24T02:51:27.430Z,16.63
2018-05-24T02:53:55.606Z,16.63
2018-05-24T02:56:23.786Z,16.61
2018-05-24T02:58:51.914Z,16.59
2018-05-24T03:01:20.116Z,16.58
2018-05-24T03:03:48.305Z,16.62
2018-05-24T03:06:16.480Z,16.63
2018-05-24T03:08:44.660Z,16.65
2018-05-24T03:11:12.825Z,16.67
2018-05-24T03:13:41.904Z,16.69
2018-05-24T03:16:10.291Z,16.71
2018-05-24T03:18:38.491Z,16.70
2018-05-24T03:21:06.762Z,16.69
2018-05-24T03:23:34.918Z,16.68
2018-05-24T03:26:03.070Z,16.68
2018-05-24T03:28:32.211Z,16.67
2018-05-24T03:31:00.368Z,16.70
2018-05-24T03:33:28.525Z,16.74
2018-05-24T03:35:56.698Z,16.74
2018-05-24T03:38:24.884Z,16.74
2018-05-24T03:40:53.034Z,16.73
2018-05-24T03:43:21.224Z,16.71
2018-05-24T03:45:49.363Z,16.67
2018-05-24T03:48:17.526Z,16.64
2018-05-24T03:50:45.736Z,16.63
2018-05-24T03:53:13.971Z,16.62
2018-05-24T03:55:44.032Z,16.62
2018-05-24T03:58:13.482Z,16.62
2018-05-24T04:00:53.459Z,16.61
2018-05-24T04:03:33.379Z,16.61
2018-05-24T04:06:01.814Z,16.61
2018-05-24T04:08:29.963Z,16.61
2018-05-24T04:10:58.127Z,16.59
2018-05-24T04:13:26.272Z,16.58
2018-05-24T04:15:54.475Z,16.58
2018-05-24T04:18:22.622Z,16.59
2018-05-24T04:20:50.880Z,16.58
2018-05-24T04:23:19.028Z,16.60
2018-05-24T04:25:47.175Z,16.62
2018-05-24T04:28:15.366Z,16.62
2018-05-24T04:30:43.524Z,16.64
2018-05-24T04:33:11.715Z,16.67
2018-05-24T04:35:39.876Z,16.70
2018-05-24T04:38:09.555Z,16.72
2018-05-24T04:40:37.718Z,16.76
2018-05-24T04:43:05.902Z,16.78
2018-05-24T04:45:34.061Z,16.80
2018-05-24T04:48:03.229Z,16.81
2018-05-24T04:50:31.520Z,16.80
2018-05-24T04:52:59.669Z,16.79
2018-05-24T04:55:27.845Z,16.81
2018-05-24T04:57:56.005Z,16.83
2018-05-24T05:00:24.439Z,16.85
2018-05-24T05:02:52.611Z,16.90
2018-05-24T05:05:20.786Z,16.95
2018-05-24T05:07:48.959Z,17.01
2018-05-24T05:10:17.129Z,17.00
2018-05-24T05:12:45.310Z,17.01
2018-05-24T05:15:15.872Z,17.07
2018-05-24T05:17:44.981Z,17.06
2018-05-24T05:20:13.138Z,17.13
2018-05-24T05:22:41.331Z,17.13
2018-05-24T05:25:09.593Z,17.18
2018-05-24T05:27:37.720Z,17.26
2018-05-24T05:30:06.233Z,17.33
2018-05-24T05:32:34.406Z,17.36
2018-05-24T05:35:03.633Z,17.39
2018-05-24T05:37:31.893Z,17.40
2018-05-24T05:40:00.074Z,17.40
2018-05-24T05:42:28.223Z,17.42
2018-05-24T05:44:56.492Z,17.42
2018-05-24T05:47:24.570Z,17.45
2018-05-24T05:49:52.745Z,17.45
2018-05-24T05:52:21.271Z,17.45
2018-05-24T05:54:49.439Z,17.48
2018-05-24T05:57:17.606Z,17.55
2018-05-24T05:59:45.781Z,17.56
2018-05-24T06:02:13.956Z,17.61
2018-05-24T06:04:42.119Z,17.56
2018-05-24T06:07:10.278Z,17.58
2018-05-24T06:09:38.511Z,17.64
2018-05-24T06:12:10.169Z,17.70
2018-05-24T06:14:38.351Z,17.73
2018-05-24T06:17:06.511Z,17.77
2018-05-24T06:19:34.707Z,17.79
2018-05-24T06:22:02.886Z,17.82
2018-05-24T06:24:31.062Z,17.84
2018-05-24T06:26:59.240Z,17.91
2018-05-24T06:29:27.436Z,18.00
2018-05-24T06:31:55.600Z,18.05
2018-05-24T06:34:24.781Z,18.08
2018-05-24T06:36:54.405Z,18.08
2018-05-24T06:39:25.599Z,18.16
2018-05-24T06:41:53.861Z,18.24
2018-05-24T06:44:22.024Z,18.34
2018-05-24T06:46:50.170Z,18.43
2018-05-24T06:49:18.370Z,18.45
2018-05-24T06:51:46.525Z,18.47
2018-05-24T06:54:14.705Z,18.42
2018-05-24T06:56:42.869Z,18.42
2018-05-24T06:59:11.075Z,18.39
2018-05-24T07:01:39.252Z,18.41
2018-05-24T07:04:07.418Z,18.34
2018-05-24T07:06:35.585Z,18.34
2018-05-24T07:09:04.502Z,18.32
2018-05-24T07:11:32.734Z,18.29
2018-05-24T07:14:01.301Z,18.31
2018-05-24T07:16:29.500Z,18.33
2018-05-24T07:18:57.656Z,18.37
2018-05-24T07:21:25.855Z,18.42
2018-05-24T07:23:54.029Z,18.47
2018-05-24T07:26:22.202Z,18.53
2018-05-24T07:28:50.363Z,18.56
2018-05-24T07:31:18.547Z,18.63
2018-05-24T07:33:46.703Z,18.70
2018-05-24T07:36:14.889Z,18.69
2018-05-24T07:38:50.028Z,18.74
2018-05-24T07:41:18.235Z,18.78
2018-05-24T07:43:46.397Z,18.88
2018-05-24T07:46:14.555Z,18.92
2018-05-24T07:48:42.736Z,18.93
2018-05-24T07:51:10.935Z,18.95
2018-05-24T07:53:39.125Z,18.87
2018-05-24T07:56:07.297Z,18.89
2018-05-24T07:58:35.466Z,18.92
2018-05-24T08:01:03.635Z,18.92
2018-05-24T08:03:31.837Z,18.88
2018-05-24T08:05:59.980Z,18.92
2018-05-24T08:08:28.861Z,18.96
2018-05-24T08:10:57.042Z,18.95
2018-05-24T08:13:25.232Z,18.99
2018-05-24T08:15:55.594Z,19.04
2018-05-24T08:18:23.761Z,19.13
2018-05-24T08:20:51.917Z,19.18
2018-05-24T08:23:20.093Z,19.28
2018-05-24T08:25:48.315Z,19.46
2018-05-24T08:28:22.938Z,19.63
2018-05-24T08:30:51.115Z,19.76
2018-05-24T08:33:19.302Z,19.88
2018-05-24T08:35:47.469Z,19.98
2018-05-24T08:38:16.312Z,20.03
2018-05-24T08:40:44.508Z,19.93
2018-05-24T08:43:12.661Z,19.76
2018-05-24T08:45:40.796Z,19.70
2018-05-24T08:48:16.880Z,19.78
2018-05-24T08:50:45.019Z,19.92
2018-05-24T08:53:13.204Z,20.00
2018-05-24T08:55:41.383Z,20.09
2018-05-24T08:58:09.556Z,20.15
2018-05-24T09:00:37.712Z,20.15
2018-05-24T09:03:05.897Z,20.07
2018-05-24T09:05:34.064Z,20.11
2018-05-24T09:08:02.229Z,20.25
2018-05-24T09:10:30.424Z,20.33
2018-05-24T09:12:58.951Z,20.40
2018-05-24T09:15:27.108Z,20.32
2018-05-24T09:17:55.288Z,20.24
2018-05-24T09:20:23.501Z,20.17
2018-05-24T09:22:51.675Z,20.11
2018-05-24T09:25:19.846Z,20.04
2018-05-24T09:27:48.036Z,19.85
2018-05-24T09:30:17.303Z,19.53
2018-05-24T09:32:45.467Z,19.40
2018-05-24T09:35:13.617Z,19.36
2018-05-24T09:37:41.813Z,19.32
2018-05-24T09:40:09.984Z,19.30
2018-05-24T09:42:38.139Z,19.27
2018-05-24T09:45:06.320Z,19.24
2018-05-24T09:47:34.503Z,19.31
2018-05-24T09:50:02.689Z,19.37
2018-05-24T09:52:30.870Z,19.32
2018-05-24T09:54:59.059Z,19.36
2018-05-24T09:57:27.217Z,19.46
2018-05-24T09:59:55.403Z,19.47
2018-05-24T10:02:24.607Z,19.53
2018-05-24T10:04:52.801Z,19.50
2018-05-24T10:07:21.913Z,19.60
2018-05-24T10:09:50.091Z,19.67
2018-05-24T10:12:21.586Z,19.72
2018-05-24T10:14:49.736Z,19.71
2018-05-24T10:17:21.180Z,19.77
2018-05-24T10:19:49.348Z,19.94
2018-05-24T10:22:17.537Z,20.03
2018-05-24T10:24:45.701Z,20.10
2018-05-24T10:27:13.895Z,20.23
2018-05-24T10:29:42.048Z,20.45
2018-05-24T10:32:17.081Z,20.61
2018-05-24T10:34:45.281Z,20.68
2018-05-24T10:37:13.443Z,20.71
2018-05-24T10:39:41.618Z,20.73
2018-05-24T10:42:09.793Z,20.70
2018-05-24T10:44:37.993Z,20.66
2018-05-24T10:47:11.047Z,20.63
2018-05-24T10:49:39.237Z,20.62
2018-05-24T10:52:07.366Z,20.63
2018-05-24T10:54:36.466Z,20.62
2018-05-24T10:57:04.630Z,20.61
2018-05-24T10:59:32.828Z,20.61
2018-05-24T11:02:01.006Z,20.66
2018-05-24T11:04:29.187Z,20.80
2018-05-24T11:06:57.397Z,20.95
2018-05-24T11:09:25.558Z,20.94
2018-05-24T11:11:53.759Z,21.06
2018-05-24T11:14:24.591Z,21.23
2018-05-24T11:16:52.766Z,21.39
2018-05-24T11:19:20.919Z,21.44
2018-05-24T11:21:49.089Z,21.53
2018-05-24T11:24:17.561Z,21.59
2018-05-24T11:26:46.687Z,21.62
2018-05-24T11:29:14.845Z,21.60
2018-05-24T11:31:43.130Z,21.68
2018-05-24T11:34:11.226Z,21.76
2018-05-24T11:36:39.388Z,21.75
2018-05-24T11:39:11.122Z,21.80
2018-05-24T11:41:39.307Z,21.84
2018-05-24T11:44:07.561Z,21.85
2018-05-24T11:49:08.873Z,21.90
2018-05-24T11:51:37.679Z,21.73
2018-05-24T11:54:05.901Z,21.71
2018-05-24T11:56:34.079Z,21.85
2018-05-24T11:59:02.255Z,21.93
2018-05-24T12:01:30.423Z,21.91
2018-05-24T12:03:58.592Z,21.89
2018-05-24T12:06:26.773Z,21.84
2018-05-24T12:08:58.631Z,21.84
2018-05-24T12:11:26.815Z,21.89
2018-05-24T12:13:54.975Z,21.92
2018-05-24T12:16:23.147Z,21.93
2018-05-24T12:18:51.335Z,22.00
2018-05-24T12:21:19.508Z,22.04
2018-05-24T12:23:47.709Z,22.03
2018-05-24T12:26:15.863Z,21.97
2018-05-24T12:28:44.067Z,22.02
2018-05-24T12:31:12.292Z,22.06
2018-05-24T12:33:41.613Z,22.19
2018-05-24T12:36:12.538Z,22.22
2018-05-24T12:38:40.882Z,22.16
2018-05-24T12:41:09.762Z,22.26
2018-05-24T12:43:37.912Z,22.34
2018-05-24T12:46:06.087Z,22.47
2018-05-24T12:48:34.269Z,22.57
2018-05-24T12:51:02.442Z,22.69
2018-05-24T12:53:33.753Z,22.79
2018-05-24T12:56:01.938Z,22.76
2018-05-24T12:58:30.110Z,22.78
2018-05-24T13:00:58.297Z,22.76
2018-05-24T13:03:26.468Z,22.76
2018-05-24T13:05:54.626Z,22.71
2018-05-24T13:08:22.811Z,22.70
2018-05-24T13:10:50.982Z,22.75
2018-05-24T13:13:26.134Z,22.84
2018-05-24T13:15:54.294Z,22.80
2018-05-24T13:18:24.812Z,22.80
2018-05-24T13:20:52.964Z,22.80
2018-05-24T13:23:21.144Z,22.82
2018-05-24T13:25:49.320Z,22.89
2018-05-24T13:28:17.487Z,22.93
2018-05-24T13:30:47.262Z,22.93
2018-05-24T13:33:16.788Z,22.85
2018-05-24T13:35:44.961Z,22.79
2018-05-24T13:38:13.144Z,22.83
2018-05-24T13:40:41.340Z,22.87
2018-05-24T13:43:12.714Z,22.82
2018-05-24T13:45:42.252Z,22.82
2018-05-24T13:48:10.408Z,22.67
2018-05-24T13:50:38.609Z,22.75
2018-05-24T13:55:39.647Z,22.97
2018-05-24T13:58:07.808Z,23.08
2018-05-24T14:00:36.699Z,23.01
2018-05-24T14:03:04.868Z,23.17
2018-05-24T14:05:33.078Z,23.79
2018-05-24T14:08:01.219Z,24.64
2018-05-24T14:10:29.375Z,25.52
2018-05-24T14:12:58.236Z,26.51
2018-05-24T14:15:26.712Z,27.02
2018-05-24T14:17:54.900Z,27.55
2018-05-24T14:20:23.062Z,27.70
2018-05-24T14:22:51.325Z,27.89
2018-05-24T14:25:19.477Z,28.37
2018-05-24T14:27:47.691Z,28.61
2018-05-24T14:30:17.114Z,27.90
2018-05-24T14:32:45.441Z,27.96
2018-05-24T14:35:13.628Z,28.31
2018-05-24T14:37:41.804Z,28.59
2018-05-24T14:40:12.622Z,28.91
2018-05-24T14:42:40.792Z,27.28
2018-05-24T14:45:08.970Z,26.59
2018-05-24T14:47:39.585Z,26.28
2018-05-24T14:50:07.774Z,26.14
2018-05-24T14:52:35.996Z,26.17
2018-05-24T14:55:10.087Z,26.38
2018-05-24T14:57:38.269Z,26.79
2018-05-24T15:00:06.407Z,27.58
2018-05-24T15:02:34.578Z,27.62
2018-05-24T15:05:02.895Z,27.45
2018-05-24T15:07:31.049Z,27.42
2018-05-24T15:09:59.327Z,27.22
2018-05-24T15:12:27.493Z,26.76
2018-05-24T15:14:57.451Z,26.67
2018-05-24T15:17:25.664Z,26.63
2018-05-24T15:19:53.813Z,26.81
2018-05-24T15:22:33.490Z,27.59
2018-05-24T15:25:02.963Z,28.11
2018-05-24T15:27:31.394Z,28.49
2018-05-24T15:29:59.492Z,28.87
2018-05-24T15:32:28.182Z,28.73
2018-05-24T15:34:56.920Z,27.95
2018-05-24T15:37:25.056Z,27.48
2018-05-24T15:39:53.477Z,27.94
2018-05-24T15:42:21.683Z,28.37
2018-05-24T15:44:49.836Z,28.63
2018-05-24T15:47:17.993Z,28.36
2018-05-24T15:49:46.116Z,28.53
2018-05-24T15:52:14.228Z,28.47
2018-05-24T15:54:42.366Z,28.38
2018-05-24T15:57:10.474Z,28.45
2018-05-24T15:59:38.611Z,28.62
2018-05-24T16:02:06.759Z,28.78
2018-05-24T16:04:34.863Z,28.05
2018-05-24T16:09:37.558Z,27.53
2018-05-24T16:12:05.728Z,27.08
2018-05-24T16:14:33.892Z,26.67
2018-05-24T16:17:02.040Z,26.42
2018-05-24T16:20:11.747Z,25.87
2018-05-24T16:22:39.899Z,25.66
2018-05-24T16:25:08.049Z,25.49
2018-05-24T16:27:36.196Z,25.26
2018-05-24T16:30:04.316Z,25.02
2018-05-24T16:32:33.427Z,24.79
2018-05-24T16:35:01.556Z,24.58
2018-05-24T16:37:29.749Z,24.48
2018-05-24T16:39:57.875Z,24.30
2018-05-24T16:42:26.045Z,24.18
2018-05-24T16:44:54.156Z,24.07
2018-05-24T16:47:22.277Z,23.90
2018-05-24T16:49:50.452Z,23.74
2018-05-24T16:52:18.555Z,23.67
2018-05-24T16:54:46.713Z,23.57
2018-05-24T16:57:14.840Z,23.53
2018-05-24T16:59:42.966Z,23.52
2018-05-24T17:02:11.096Z,23.43
2018-05-24T17:04:39.242Z,23.31
2018-05-24T17:07:07.388Z,23.26
2018-05-24T17:09:35.526Z,23.23
2018-05-24T17:12:03.638Z,23.19
2018-05-24T17:14:32.183Z,23.12
2018-05-24T17:17:00.323Z,23.01
2018-05-24T17:19:28.452Z,22.94
2018-05-24T17:21:56.611Z,22.87
2018-05-24T17:24:24.746Z,22.80
2018-05-24T17:26:52.890Z,22.78
2018-05-24T17:29:21.024Z,22.77
2018-05-24T17:36:45.672Z,22.65
2018-05-24T17:39:17.414Z,22.61
2018-05-24T17:41:45.592Z,22.52
2018-05-24T17:44:13.770Z,22.49
2018-05-24T17:46:41.960Z,22.45
2018-05-24T17:49:10.133Z,22.43
2018-05-24T17:51:38.307Z,22.37
2018-05-24T17:54:09.807Z,22.33
2018-05-24T17:56:37.968Z,22.29
2018-05-24T17:59:06.250Z,22.21
2018-05-24T18:01:34.447Z,22.13
2018-05-24T18:04:02.630Z,22.04
2018-05-24T18:06:30.797Z,21.94
2018-05-24T18:08:59.007Z,21.90
2018-05-24T18:11:27.181Z,21.84
2018-05-24T18:13:55.373Z,21.76
2018-05-24T18:16:23.524Z,21.69
2018-05-24T18:18:52.441Z,21.62
2018-05-24T18:21:20.615Z,21.55
2018-05-24T18:23:48.799Z,21.49
2018-05-24T18:26:17.964Z,21.47
2018-05-24T18:28:46.619Z,21.43
2018-05-24T18:31:14.779Z,21.39
2018-05-24T18:33:42.947Z,21.31
2018-05-24T18:36:17.979Z,21.29
2018-05-24T18:38:46.147Z,21.26
2018-05-24T18:41:14.304Z,21.22
2018-05-24T18:43:42.493Z,21.18
2018-05-24T18:46:10.684Z,21.14
2018-05-24T18:48:38.871Z,21.06
2018-05-24T18:51:07.931Z,21.00
2018-05-24T18:53:37.949Z,20.98
2018-05-24T18:56:06.187Z,20.90
2018-05-24T18:58:34.356Z,20.25
2018-05-24T19:01:02.655Z,19.00
2018-05-24T19:03:30.842Z,17.82
2018-05-24T19:05:59.047Z,17.06
2018-05-24T19:08:27.249Z,16.57
2018-05-24T19:10:56.016Z,16.45
2018-05-24T19:13:25.776Z,16.69
2018-05-24T19:15:53.961Z,16.81
2018-05-24T19:18:22.141Z,16.97
2018-05-24T19:20:50.561Z,17.13
2018-05-24T19:23:18.730Z,17.26
2018-05-24T19:25:46.927Z,17.37
2018-05-24T19:28:15.466Z,17.38
2018-05-24T19:30:43.650Z,17.22
2018-05-24T19:33:11.854Z,17.12
2018-05-24T19:35:40.091Z,17.11
2018-05-24T19:38:08.254Z,17.09
2018-05-24T19:40:36.442Z,17.04
2018-05-24T19:43:04.637Z,16.98
2018-05-24T19:45:32.823Z,16.90
2018-05-24T19:48:00.980Z,16.82
2018-05-24T19:50:29.154Z,16.81
2018-05-24T19:52:57.338Z,16.81
2018-05-24T19:55:25.486Z,16.89
2018-05-24T19:57:53.725Z,16.98
2018-05-24T20:00:21.884Z,17.04
2018-05-24T20:02:50.735Z,17.06
2018-05-24T20:05:18.887Z,17.07
2018-05-24T20:07:47.098Z,17.11
2018-05-24T20:10:17.806Z,17.14
2018-05-24T20:12:45.999Z,17.17
2018-05-24T20:15:14.168Z,17.17
2018-05-24T20:17:42.375Z,17.22
2018-05-24T20:20:10.605Z,17.23
2018-05-24T20:22:38.755Z,17.27
2018-05-24T20:25:06.941Z,17.26
2018-05-24T20:27:35.091Z,17.25
2018-05-24T20:30:03.394Z,17.23
2018-05-24T20:32:31.583Z,17.14
2018-05-24T20:34:59.765Z,17.12
2018-05-24T20:37:27.942Z,17.08
2018-05-24T20:39:56.086Z,17.07
2018-05-24T20:42:24.269Z,17.06
2018-05-24T20:44:53.988Z,17.02
2018-05-24T20:47:24.293Z,17.07
2018-05-24T20:49:52.502Z,16.99
2018-05-24T20:52:20.658Z,16.94
2018-05-24T20:54:48.840Z,16.84
2018-05-24T20:57:17.019Z,16.81
2018-05-24T20:59:45.197Z,16.82
2018-05-24T21:02:13.417Z,16.85
2018-05-24T21:04:41.589Z,16.84
2018-05-24T21:07:10.463Z,16.90
2018-05-24T21:09:38.572Z,16.93
2018-05-24T21:12:06.783Z,16.93
2018-05-24T21:14:34.935Z,17.00
2018-05-24T21:17:03.385Z,17.02
2018-05-24T21:19:31.573Z,17.06
2018-05-24T21:22:00.149Z,17.07
2018-05-24T21:24:28.349Z,17.10
2018-05-24T21:26:56.494Z,17.11
2018-05-24T21:29:24.682Z,17.09
2018-05-24T21:31:52.900Z,17.11
2018-05-24T21:34:21.107Z,17.14
2018-05-24T21:36:49.322Z,17.18
2018-05-24T21:39:17.491Z,17.19
2018-05-24T21:41:45.642Z,17.20
2018-05-24T21:44:13.844Z,17.20
2018-05-24T21:46:42.027Z,17.18
2018-05-24T21:49:10.359Z,17.18
2018-05-24T21:51:38.532Z,17.17
2018-05-24T21:54:07.052Z,17.09
2018-05-24T21:56:35.220Z,17.05
2018-05-24T21:59:03.403Z,17.05
2018-05-24T22:01:31.581Z,17.04
2018-05-24T22:03:59.746Z,17.02
2018-05-24T22:06:27.946Z,17.00
2018-05-24T22:08:56.106Z,16.99
2018-05-24T22:11:24.293Z,17.00
2018-05-24T22:13:52.762Z,16.97
2018-05-24T22:16:21.017Z,16.95
2018-05-24T22:18:49.164Z,16.93
2018-05-24T22:21:17.347Z,16.90
2018-05-24T22:23:45.511Z,16.87
2018-05-24T22:26:15.140Z,16.83
2018-05-24T22:28:43.312Z,16.73
2018-05-24T22:31:14.384Z,16.66
2018-05-24T22:33:42.604Z,16.62
2018-05-24T22:36:10.762Z,16.56
2018-05-24T22:38:38.945Z,16.52
2018-05-24T22:41:07.124Z,16.53
2018-05-24T22:43:39.272Z,16.55
2018-05-24T22:46:07.444Z,16.57
2018-05-24T22:48:35.625Z,16.59
2018-05-24T22:51:03.829Z,16.67
2018-05-24T22:53:32.007Z,16.71
2018-05-24T22:56:01.720Z,16.72
2018-05-24T22:58:30.585Z,16.71
2018-05-24T23:00:58.786Z,16.74
2018-05-24T23:03:26.981Z,16.77
2018-05-24T23:05:55.165Z,16.77
2018-05-24T23:08:23.335Z,16.77
2018-05-24T23:10:51.517Z,16.75
2018-05-24T23:13:19.685Z,16.77
2018-05-24T23:15:47.862Z,16.78
2018-05-24T23:18:16.020Z,16.78
2018-05-24T23:20:44.210Z,16.78
2018-05-24T23:23:12.367Z,16.78
2018-05-24T23:25:40.529Z,16.75
2018-05-24T23:28:08.717Z,16.75
2018-05-24T23:30:36.891Z,16.65
2018-05-24T23:33:05.071Z,16.57
2018-05-24T23:35:33.222Z,16.54
2018-05-24T23:38:01.400Z,16.52
2018-05-24T23:40:29.588Z,16.51
2018-05-24T23:42:57.837Z,16.50
2018-05-24T23:45:25.994Z,16.49
2018-05-24T23:47:54.235Z,16.46
2018-05-24T23:50:22.403Z,16.45
2018-05-24T23:52:50.591Z,16.44
2018-05-24T23:55:18.812Z,16.44
2018-05-24T23:57:46.970Z,16.44
